Time;durP1;ratioP1;P1;durP2;ratioP2;P2;SDS_P1;SDS_P2;PMS_P1;PMS_P2;Temp;Humidity;BMP_temperature;BMP_pressure;BME280_temperature;BME280_humidity;BME280_pressure;Samples;Min_cycle;Max_cycle;Signal;HPM_P1;HPM_P2
2022/07/16 00:04:03;;;;;;;17.45;3.67;;;;;;;;;;21081763;28;20121;-65
2022/07/16 00:14:05;;;;;;;7.50;2.67;;;;;;;;;;21081751;28;20480;-67
2022/07/16 00:24:07;;;;;;;6.93;2.95;;;;;;;;;;21080286;28;20047;-66
2022/07/16 00:34:09;;;;;;;5.75;2.83;;;;;;;;;;21080374;28;20138;-65
2022/07/16 00:44:13;;;;;;;6.40;2.67;;;;;;;;;;21080178;28;20044;-68
2022/07/16 00:54:15;;;;;;;11.90;2.65;;;;;;;;;;21079191;28;20079;-68
2022/07/16 01:04:17;;;;;;;3.95;2.30;;;;;;;;;;21077972;28;20048;-69
2022/07/16 01:14:20;;;;;;;4.32;2.47;;;;;;;;;;21077578;28;20060;-67
2022/07/16 01:24:22;;;;;;;9.30;2.15;;;;;;;;;;21078463;28;20048;-67
2022/07/16 01:34:25;;;;;;;8.38;2.80;;;;;;;;;;21076971;28;20089;-68
2022/07/16 01:44:30;;;;;;;9.85;5.75;;;;;;;;;;21076672;28;20052;-67
2022/07/16 01:54:41;;;;;;;5.35;4.78;;;;;;;;;;21084143;28;20048;-67
2022/07/16 02:04:47;;;;;;;5.95;3.67;;;;;;;;;;21090702;28;20447;-66
2022/07/16 02:14:52;;;;;;;4.00;3.00;;;;;;;;;;21090275;28;20044;-66
2022/07/16 02:24:58;;;;;;;6.28;2.72;;;;;;;;;;21090335;28;20052;-66
2022/07/16 02:35:01;;;;;;;4.68;2.00;;;;;;;;;;21089670;28;20101;-69
2022/07/16 02:45:08;;;;;;;4.32;2.22;;;;;;;;;;21088876;28;20044;-67
2022/07/16 02:55:12;;;;;;;4.43;2.30;;;;;;;;;;21088007;28;20044;-66
2022/07/16 03:05:14;;;;;;;3.65;2.28;;;;;;;;;;21085720;28;20143;-68
2022/07/16 03:15:17;;;;;;;3.95;2.70;;;;;;;;;;21085634;28;20507;-68
2022/07/16 03:25:19;;;;;;;3.58;2.38;;;;;;;;;;21084985;28;20055;-67
2022/07/16 03:35:22;;;;;;;6.22;4.22;;;;;;;;;;21083792;28;20052;-66
2022/07/16 03:45:24;;;;;;;15.50;10.10;;;;;;;;;;21082907;28;20048;-71
2022/07/16 03:55:27;;;;;;;9.10;5.40;;;;;;;;;;21083474;28;20048;-68
2022/07/16 04:05:29;;;;;;;9.45;4.80;;;;;;;;;;21081549;28;20064;-70
2022/07/16 04:15:32;;;;;;;8.90;3.63;;;;;;;;;;21081005;28;20117;-70
2022/07/16 04:25:34;;;;;;;4.43;3.42;;;;;;;;;;21081183;28;20164;-67
2022/07/16 04:35:37;;;;;;;5.80;3.30;;;;;;;;;;21081002;28;20051;-69
2022/07/16 04:45:39;;;;;;;5.43;3.90;;;;;;;;;;21062424;28;20108;-69
2022/07/16 04:55:41;;;;;;;8.20;4.07;;;;;;;;;;21085052;28;20056;-68
2022/07/16 05:05:43;;;;;;;5.38;3.70;;;;;;;;;;21081449;28;20052;-67
2022/07/16 05:15:46;;;;;;;5.75;3.33;;;;;;;;;;21077682;28;20044;-68
2022/07/16 05:25:48;;;;;;;8.02;3.42;;;;;;;;;;21080326;28;20090;-67
2022/07/16 05:35:50;;;;;;;4.80;3.45;;;;;;;;;;21093734;28;20048;-70
2022/07/16 05:45:52;;;;;;;4.68;2.80;;;;;;;;;;21093410;28;20500;-67
2022/07/16 05:55:54;;;;;;;6.95;3.88;;;;;;;;;;21092574;28;20044;-67
2022/07/16 06:05:56;;;;;;;6.90;4.13;;;;;;;;;;21090774;28;20060;-67
2022/07/16 06:15:58;;;;;;;5.63;3.45;;;;;;;;;;21090930;28;20123;-68
2022/07/16 06:25:59;;;;;;;5.57;3.00;;;;;;;;;;21091008;28;20058;-67
2022/07/16 06:36:02;;;;;;;4.10;3.30;;;;;;;;;;21088832;28;20135;-67
2022/07/16 06:46:03;;;;;;;9.35;3.42;;;;;;;;;;21089383;28;20091;-67
2022/07/16 06:56:08;;;;;;;7.57;3.50;;;;;;;;;;21088299;28;20132;-67
2022/07/16 07:06:11;;;;;;;6.90;3.77;;;;;;;;;;21086556;28;20055;-68
2022/07/16 07:16:12;;;;;;;4.75;3.08;;;;;;;;;;21085977;28;20048;-66
2022/07/16 07:26:15;;;;;;;7.20;3.30;;;;;;;;;;21067353;28;20059;-70
2022/07/16 07:36:17;;;;;;;4.43;3.17;;;;;;;;;;21083793;28;20052;-67
2022/07/16 07:46:20;;;;;;;5.03;3.28;;;;;;;;;;21083388;28;20051;-68
2022/07/16 07:56:21;;;;;;;5.63;2.80;;;;;;;;;;21083097;28;20097;-68
2022/07/16 08:06:24;;;;;;;5.95;3.00;;;;;;;;;;21082044;28;20060;-70
2022/07/16 08:16:26;;;;;;;4.78;2.92;;;;;;;;;;21081046;28;20087;-67
2022/07/16 08:26:28;;;;;;;5.88;2.80;;;;;;;;;;21082267;28;20097;-68
2022/07/16 08:36:30;;;;;;;5.40;2.80;;;;;;;;;;21080128;28;20052;-67
2022/07/16 08:46:33;;;;;;;6.35;3.03;;;;;;;;;;21079390;28;20090;-68
2022/07/16 08:56:35;;;;;;;4.78;2.90;;;;;;;;;;21079547;28;20500;-72
2022/07/16 09:06:38;;;;;;;7.88;3.40;;;;;;;;;;21091061;28;20120;-67
2022/07/16 09:16:41;;;;;;;7.38;3.55;;;;;;;;;;21097492;28;20052;-67
2022/07/16 09:26:43;;;;;;;9.30;5.28;;;;;;;;;;21095333;28;20051;-66
2022/07/16 09:37:15;;;;;;;7.80;3.58;;;;;;;;;;21094154;28;20091;-67
2022/07/16 09:47:19;;;;;;;6.30;4.40;;;;;;;;;;20671059;28;20046;-63
2022/07/16 09:57:25;;;;;;;4.45;4.05;;;;;;;;;;20670968;28;20092;-66
2022/07/16 10:07:28;;;;;;;8.13;4.75;;;;;;;;;;20699806;28;20070;-63
2022/07/16 10:17:35;;;;;;;9.23;4.63;;;;;;;;;;20814476;28;20056;-70
2022/07/16 10:27:37;;;;;;;7.78;4.68;;;;;;;;;;21007189;28;20094;-72
2022/07/16 10:37:40;;;;;;;7.50;5.07;;;;;;;;;;21005069;28;20489;-60
2022/07/16 10:47:43;;;;;;;6.07;4.87;;;;;;;;;;21000223;28;20083;-74
2022/07/16 10:57:45;;;;;;;7.72;4.70;;;;;;;;;;21003353;28;20508;-68
2022/07/16 11:07:47;;;;;;;8.27;5.25;;;;;;;;;;21001878;28;20057;-70
2022/07/16 11:17:55;;;;;;;6.35;5.35;;;;;;;;;;21002992;28;20084;-67
2022/07/16 11:28:00;;;;;;;12.60;6.05;;;;;;;;;;21000527;28;20052;-63
2022/07/16 11:38:02;;;;;;;9.85;5.40;;;;;;;;;;21000200;28;20049;-68
2022/07/16 11:48:10;;;;;;;6.38;5.47;;;;;;;;;;20999756;28;20601;-69
2022/07/16 11:58:13;;;;;;;11.82;6.28;;;;;;;;;;20999079;28;20052;-65
2022/07/16 12:08:14;;;;;;;9.32;5.30;;;;;;;;;;21001343;28;20072;-69
2022/07/16 12:18:16;;;;;;;6.43;5.03;;;;;;;;;;21002254;28;20435;-68
2022/07/16 12:28:19;;;;;;;7.13;6.43;;;;;;;;;;20997672;28;20045;-63
2022/07/16 12:38:40;;;;;;;8.88;5.82;;;;;;;;;;20997034;28;20110;-64
2022/07/16 12:48:43;;;;;;;7.38;5.22;;;;;;;;;;20997433;28;20044;-63
2022/07/16 12:58:48;;;;;;;5.57;4.60;;;;;;;;;;20996271;28;20044;-65
2022/07/16 13:08:51;;;;;;;9.45;5.15;;;;;;;;;;20995027;28;20056;-64
2022/07/16 13:18:54;;;;;;;7.03;4.50;;;;;;;;;;20993812;28;20071;-62
2022/07/16 13:28:56;;;;;;;10.73;5.13;;;;;;;;;;20994470;28;20541;-64
2022/07/16 13:39:01;;;;;;;6.28;4.15;;;;;;;;;;20994282;28;20540;-72
2022/07/16 13:49:03;;;;;;;8.68;3.90;;;;;;;;;;20999365;28;20480;-63
2022/07/16 13:59:06;;;;;;;6.90;4.45;;;;;;;;;;21007889;28;20062;-62
2022/07/16 14:09:08;;;;;;;9.77;3.67;;;;;;;;;;21007168;28;20494;-65
2022/07/16 14:19:10;;;;;;;8.20;3.63;;;;;;;;;;21007452;28;20087;-63
2022/07/16 14:29:12;;;;;;;12.05;4.13;;;;;;;;;;21005954;28;20409;-62
2022/07/16 14:39:14;;;;;;;8.27;3.60;;;;;;;;;;21006363;28;20131;-64
2022/07/16 14:49:16;;;;;;;7.60;3.55;;;;;;;;;;21004645;28;20092;-63
2022/07/16 14:59:17;;;;;;;10.23;3.45;;;;;;;;;;21003990;28;20106;-64
2022/07/16 15:09:19;;;;;;;6.30;3.42;;;;;;;;;;21002531;28;20049;-61
2022/07/16 15:19:22;;;;;;;5.78;3.55;;;;;;;;;;21001303;28;20052;-64
2022/07/16 15:29:24;;;;;;;6.22;3.85;;;;;;;;;;21001993;28;20044;-69
2022/07/16 15:39:26;;;;;;;10.40;4.13;;;;;;;;;;21000368;28;20055;-69
2022/07/16 15:49:28;;;;;;;8.98;5.25;;;;;;;;;;21002890;28;20044;-64
2022/07/16 15:59:30;;;;;;;7.20;3.72;;;;;;;;;;20999627;28;20052;-61
2022/07/16 16:09:31;;;;;;;8.52;4.50;;;;;;;;;;20997236;28;20052;-64
2022/07/16 16:19:33;;;;;;;7.68;4.13;;;;;;;;;;20996968;28;20053;-66
2022/07/16 16:29:35;;;;;;;8.80;4.35;;;;;;;;;;20996633;28;20045;-66
2022/07/16 16:39:37;;;;;;;8.95;3.88;;;;;;;;;;20997866;28;20044;-65
2022/07/16 16:49:39;;;;;;;8.45;4.30;;;;;;;;;;20996126;28;20059;-67
2022/07/16 16:59:41;;;;;;;14.00;4.22;;;;;;;;;;20996105;28;20123;-66
2022/07/16 17:09:44;;;;;;;9.98;3.42;;;;;;;;;;20995032;28;20455;-66
2022/07/16 17:19:46;;;;;;;9.68;5.18;;;;;;;;;;20994716;28;20048;-65
2022/07/16 17:29:49;;;;;;;7.87;4.27;;;;;;;;;;21010989;28;20485;-63
2022/07/16 17:39:51;;;;;;;10.60;4.07;;;;;;;;;;21009604;28;20049;-65
2022/07/16 17:49:53;;;;;;;8.43;4.10;;;;;;;;;;21008650;28;20075;-65
2022/07/16 17:59:56;;;;;;;8.25;4.13;;;;;;;;;;21007831;28;20059;-65
2022/07/16 18:09:58;;;;;;;9.93;4.50;;;;;;;;;;21007468;28;20153;-63
2022/07/16 18:19:59;;;;;;;8.52;3.85;;;;;;;;;;21006647;28;20513;-63
2022/07/16 18:30:01;;;;;;;9.18;3.78;;;;;;;;;;21006502;28;20040;-67
2022/07/16 18:40:04;;;;;;;6.20;3.10;;;;;;;;;;21004548;28;20063;-64
2022/07/16 18:50:07;;;;;;;6.47;3.58;;;;;;;;;;21005232;28;20091;-65
2022/07/16 19:00:09;;;;;;;6.90;3.42;;;;;;;;;;21003654;28;20091;-65
2022/07/16 19:10:11;;;;;;;6.28;4.53;;;;;;;;;;21002540;28;20053;-63
2022/07/16 19:20:13;;;;;;;6.80;3.63;;;;;;;;;;21001636;28;20084;-62
2022/07/16 19:30:16;;;;;;;7.43;4.05;;;;;;;;;;21002761;28;20040;-64
2022/07/16 19:40:18;;;;;;;10.63;3.57;;;;;;;;;;21004362;28;20082;-64
2022/07/16 19:50:20;;;;;;;10.82;3.45;;;;;;;;;;20998564;28;20493;-66
2022/07/16 20:00:22;;;;;;;7.00;4.38;;;;;;;;;;20999104;28;20442;-65
2022/07/16 20:10:24;;;;;;;7.75;3.80;;;;;;;;;;20998012;28;20049;-62
2022/07/16 20:20:26;;;;;;;7.93;4.07;;;;;;;;;;20997212;28;20044;-65
2022/07/16 20:30:29;;;;;;;7.97;3.92;;;;;;;;;;20998402;28;20052;-66
2022/07/16 20:40:31;;;;;;;8.87;4.27;;;;;;;;;;20979691;28;20390;-63
2022/07/16 20:50:33;;;;;;;9.50;4.45;;;;;;;;;;20996109;28;20045;-63
2022/07/16 21:00:35;;;;;;;10.32;6.65;;;;;;;;;;20995894;28;20059;-69
2022/07/16 21:10:37;;;;;;;9.25;5.78;;;;;;;;;;20976211;28;20048;-67
2022/07/16 21:20:40;;;;;;;7.97;4.30;;;;;;;;;;20976267;28;20555;-63
2022/07/16 21:30:41;;;;;;;8.88;4.63;;;;;;;;;;20994452;28;20416;-66
2022/07/16 21:40:43;;;;;;;9.63;5.53;;;;;;;;;;20994249;28;20481;-66
2022/07/16 21:50:45;;;;;;;7.82;5.13;;;;;;;;;;20997954;28;20074;-70
2022/07/16 22:00:47;;;;;;;6.90;4.47;;;;;;;;;;20997236;28;20084;-69
2022/07/16 22:10:49;;;;;;;6.30;4.25;;;;;;;;;;20999625;28;20152;-66
2022/07/16 22:20:54;;;;;;;9.60;4.57;;;;;;;;;;21007098;28;20052;-70
2022/07/16 22:30:56;;;;;;;8.10;4.40;;;;;;;;;;21006542;28;20477;-68
2022/07/16 22:40:58;;;;;;;8.13;4.47;;;;;;;;;;21006606;28;20144;-67
2022/07/16 22:51:00;;;;;;;9.73;4.32;;;;;;;;;;21006452;28;20056;-67
2022/07/16 23:01:03;;;;;;;8.88;3.88;;;;;;;;;;20986122;28;20053;-64
2022/07/16 23:11:04;;;;;;;7.28;3.20;;;;;;;;;;21002706;28;20056;-68
2022/07/16 23:21:07;;;;;;;10.00;3.28;;;;;;;;;;21002616;28;20576;-69
2022/07/16 23:31:09;;;;;;;7.07;4.15;;;;;;;;;;21001645;28;20405;-70
2022/07/16 23:41:11;;;;;;;7.10;3.78;;;;;;;;;;21001113;28;20055;-67
2022/07/16 23:51:13;;;;;;;10.55;4.70;;;;;;;;;;20999431;28;20047;-66
